Time;durP1;ratioP1;P1;durP2;ratioP2;P2;SDS_P1;SDS_P2;PMS_P1;PMS_P2;Temp;Humidity;BMP_temperature;BMP_pressure;BME280_temperature;BME280_humidity;BME280_pressure;Samples;Min_cycle;Max_cycle;Signal;HPM_P1;HPM_P2
2020/12/21 00:01:00;;;;;;;10.40;9.33;;;6.70;99.90;;;;;;5046184;28;20185;-67
2020/12/21 00:03:26;;;;;;;13.77;11.43;;;6.80;99.90;;;;;;5048694;28;20243;-65
2020/12/21 00:05:51;;;;;;;10.30;9.30;;;6.90;99.90;;;;;;5056167;28;20182;-65
2020/12/21 00:08:17;;;;;;;8.00;7.30;;;6.90;99.90;;;;;;5059402;28;20283;-65
2020/12/21 00:10:43;;;;;;;7.70;6.93;;;7.00;99.90;;;;;;5057579;28;20195;-67
2020/12/21 00:13:08;;;;;;;6.23;5.73;;;7.10;99.90;;;;;;5056531;28;20580;-65
2020/12/21 00:15:34;;;;;;;7.03;6.33;;;7.10;99.90;;;;;;5056049;28;20184;-66
2020/12/21 00:17:59;;;;;;;7.00;6.30;;;7.20;99.90;;;;;;5051602;28;20211;-67
2020/12/21 00:20:25;;;;;;;8.33;6.57;;;7.20;99.90;;;;;;5051752;28;20186;-66
2020/12/21 00:22:50;;;;;;;7.77;7.03;;;7.30;99.90;;;;;;5051246;28;20217;-67
2020/12/21 00:25:16;;;;;;;13.43;12.13;;;7.30;99.90;;;;;;5051414;28;20259;-64
2020/12/21 00:27:42;;;;;;;19.33;17.23;;;7.20;99.90;;;;;;5051054;28;20194;-65
2020/12/21 00:30:07;;;;;;;22.30;19.50;;;7.20;99.90;;;;;;5051572;28;20184;-66
2020/12/21 00:32:34;;;;;;;24.63;22.07;;;7.20;99.90;;;;;;5050723;28;20196;-65
2020/12/21 00:35:00;;;;;;;22.23;19.97;;;7.10;99.90;;;;;;5050989;28;20185;-65
2020/12/21 00:37:26;;;;;;;22.37;20.00;;;7.00;99.90;;;;;;5051113;28;20209;-65
2020/12/21 00:39:51;;;;;;;22.50;20.10;;;6.90;99.90;;;;;;5051023;28;20183;-65
2020/12/21 00:42:18;;;;;;;22.77;20.47;;;6.70;99.90;;;;;;5033661;28;20244;-65
2020/12/21 00:44:44;;;;;;;22.77;20.33;;;6.60;99.90;;;;;;5050234;28;20179;-66
2020/12/21 00:47:09;;;;;;;25.13;20.80;;;6.50;99.90;;;;;;5051005;28;20190;-65
2020/12/21 00:49:35;;;;;;;24.23;20.87;;;6.40;99.90;;;;;;5034951;28;20230;-64
2020/12/21 00:52:02;;;;;;;24.97;21.37;;;6.40;99.90;;;;;;5051184;28;20286;-65
2020/12/21 00:54:28;;;;;;;24.50;21.90;;;6.30;99.90;;;;;;5050768;28;20182;-65
2020/12/21 00:56:59;;;;;;;21.73;19.43;;;6.30;99.90;;;;;;5049941;28;20183;-64
2020/12/21 00:59:25;;;;;;;10.53;9.53;;;6.30;99.90;;;;;;5044968;28;20183;-66
2020/12/21 01:01:50;;;;;;;14.63;13.10;;;6.40;99.90;;;;;;5051141;28;20286;-65
2020/12/21 01:04:16;;;;;;;12.63;11.43;;;6.50;99.90;;;;;;5050009;28;20189;-65
2020/12/21 01:06:42;;;;;;;9.30;8.40;;;6.60;99.90;;;;;;5050636;28;20223;-65
2020/12/21 01:09:10;;;;;;;9.70;8.70;;;6.60;99.90;;;;;;5049451;28;21211;-65
2020/12/21 01:11:37;;;;;;;14.30;12.80;;;6.70;99.90;;;;;;5044910;28;20209;-65
2020/12/21 01:14:03;;;;;;;13.73;12.30;;;6.70;99.90;;;;;;5047091;28;20202;-65
2020/12/21 01:16:28;;;;;;;16.60;14.93;;;6.60;99.90;;;;;;5051187;28;20183;-65
2020/12/21 01:18:54;;;;;;;21.23;16.23;;;6.50;99.90;;;;;;5033754;28;20213;-66
2020/12/21 01:21:25;;;;;;;19.10;17.10;;;6.40;99.90;;;;;;5050726;28;20291;-66
2020/12/21 01:23:51;;;;;;;20.93;18.73;;;6.20;99.90;;;;;;5031676;28;20185;-66
2020/12/21 01:26:17;;;;;;;23.10;20.70;;;6.10;99.90;;;;;;5050170;28;20183;-66
2020/12/21 01:28:43;;;;;;;23.93;19.83;;;6.00;99.90;;;;;;5049749;28;20558;-65
2020/12/21 01:31:08;;;;;;;23.40;20.80;;;5.90;99.90;;;;;;5049746;28;20712;-65
2020/12/21 01:33:34;;;;;;;23.63;20.77;;;5.80;99.90;;;;;;5049789;28;20259;-65
2020/12/21 01:35:59;;;;;;;24.20;21.70;;;5.70;99.90;;;;;;5050086;28;20191;-65
2020/12/21 01:38:25;;;;;;;25.77;22.47;;;5.60;99.90;;;;;;5048634;28;20205;-65
2020/12/21 01:40:51;;;;;;;28.70;22.50;;;5.50;99.90;;;;;;5049236;28;20317;-65
2020/12/21 01:43:17;;;;;;;24.60;21.70;;;5.50;99.90;;;;;;5050494;28;20188;-65
2020/12/21 01:45:43;;;;;;;21.63;19.30;;;5.40;99.90;;;;;;5049671;28;20306;-65
2020/12/21 01:48:09;;;;;;;22.00;19.50;;;5.40;99.90;;;;;;5050101;28;20699;-66
2020/12/21 01:50:35;;;;;;;21.07;18.97;;;5.30;99.90;;;;;;5050458;28;20171;-65
2020/12/21 01:53:01;;;;;;;20.83;18.70;;;5.30;99.90;;;;;;5049604;28;20364;-65
2020/12/21 01:55:29;;;;;;;21.40;17.97;;;5.30;99.90;;;;;;5050412;28;20212;-65
2020/12/21 01:57:55;;;;;;;22.20;18.97;;;5.30;99.90;;;;;;5046078;28;20210;-65
2020/12/21 02:00:21;;;;;;;20.17;16.33;;;5.30;99.90;;;;;;5050621;28;20310;-65
2020/12/21 02:02:47;;;;;;;22.10;19.80;;;5.30;99.90;;;;;;5048886;28;20717;-65
2020/12/21 02:05:12;;;;;;;20.60;18.40;;;5.40;99.90;;;;;;5048962;28;20262;-66
2020/12/21 02:07:38;;;;;;;21.93;18.57;;;5.40;99.90;;;;;;5049376;28;20188;-66
2020/12/21 02:10:04;;;;;;;12.43;10.63;;;5.30;99.90;;;;;;5049481;28;20189;-65
2020/12/21 02:12:29;;;;;;;11.97;10.57;;;5.40;99.90;;;;;;5050033;28;20675;-65
2020/12/21 02:14:55;;;;;;;9.43;8.53;;;5.50;99.90;;;;;;5049838;28;20190;-66
2020/12/21 02:17:20;;;;;;;8.93;8.03;;;5.60;99.90;;;;;;5049936;28;20207;-66
2020/12/21 02:19:46;;;;;;;8.50;7.10;;;5.70;99.90;;;;;;5048906;28;20190;-66
2020/12/21 02:22:12;;;;;;;7.93;6.87;;;5.90;99.90;;;;;;5049608;28;20281;-65
2020/12/21 02:24:41;;;;;;;7.07;6.10;;;6.00;99.90;;;;;;5048269;28;20774;-65
2020/12/21 02:27:06;;;;;;;6.80;6.20;;;6.10;99.90;;;;;;5049587;28;20184;-65
2020/12/21 02:29:32;;;;;;;6.37;5.77;;;6.10;99.90;;;;;;5049940;28;20173;-65
2020/12/21 02:31:59;;;;;;;6.37;5.73;;;6.20;99.90;;;;;;5050587;28;20217;-65
2020/12/21 02:34:26;;;;;;;6.23;5.73;;;6.10;99.90;;;;;;5047370;28;20675;-66
2020/12/21 02:36:53;;;;;;;7.33;5.93;;;6.10;99.90;;;;;;5048637;28;20577;-65
2020/12/21 02:39:18;;;;;;;5.57;5.07;;;6.10;99.90;;;;;;5049486;28;20174;-65
2020/12/21 02:41:44;;;;;;;5.87;5.37;;;6.10;99.90;;;;;;5031725;28;20564;-66
2020/12/21 02:44:10;;;;;;;7.00;6.30;;;6.00;99.90;;;;;;5049200;28;20853;-65
2020/12/21 02:46:35;;;;;;;11.97;10.57;;;5.90;99.90;;;;;;5048597;28;20201;-65
2020/12/21 02:49:01;;;;;;;8.90;8.00;;;5.70;99.90;;;;;;5048688;28;20317;-65
2020/12/21 02:51:26;;;;;;;9.73;8.80;;;5.50;99.90;;;;;;5048534;28;20218;-65
2020/12/21 02:53:52;;;;;;;9.77;8.83;;;5.40;99.90;;;;;;5049405;28;20192;-65
2020/12/21 02:56:18;;;;;;;11.60;10.47;;;5.30;99.90;;;;;;5049191;28;20211;-65
2020/12/21 02:58:44;;;;;;;12.17;10.97;;;5.10;99.90;;;;;;5048140;28;20214;-65
2020/12/21 03:01:09;;;;;;;15.33;13.07;;;5.00;99.90;;;;;;5048903;28;20278;-65
2020/12/21 03:03:35;;;;;;;18.10;15.17;;;4.90;99.90;;;;;;5047891;28;20296;-67
2020/12/21 03:06:01;;;;;;;19.97;17.70;;;4.70;99.90;;;;;;5031730;28;20187;-67
2020/12/21 03:08:26;;;;;;;22.50;19.83;;;4.60;99.90;;;;;;5048806;28;20655;-66
2020/12/21 03:10:52;;;;;;;24.30;21.40;;;4.50;99.90;;;;;;5047955;28;20596;-66
2020/12/21 03:13:18;;;;;;;21.17;18.97;;;4.40;99.90;;;;;;5049067;28;20272;-65
2020/12/21 03:15:43;;;;;;;26.30;22.87;;;4.40;99.90;;;;;;5049145;28;20269;-66
2020/12/21 03:18:09;;;;;;;28.63;24.77;;;4.30;99.90;;;;;;5049323;28;20205;-66
2020/12/21 03:20:35;;;;;;;24.13;20.20;;;4.30;99.90;;;;;;5049274;28;20243;-65
2020/12/21 03:23:00;;;;;;;28.30;23.10;;;4.30;99.90;;;;;;5054706;28;20279;-65
2020/12/21 03:25:26;;;;;;;26.53;22.03;;;4.20;99.90;;;;;;5050572;28;20181;-65
2020/12/21 03:27:51;;;;;;;22.60;18.43;;;4.20;99.90;;;;;;5050729;28;20204;-66
2020/12/21 03:30:17;;;;;;;22.13;18.83;;;4.20;99.90;;;;;;5049859;28;20186;-67
2020/12/21 03:32:43;;;;;;;18.20;15.77;;;4.20;99.90;;;;;;5049509;28;20211;-67
2020/12/21 03:35:08;;;;;;;13.77;12.37;;;4.20;99.90;;;;;;5049272;28;20499;-65
2020/12/21 03:37:35;;;;;;;15.97;13.23;;;4.30;99.90;;;;;;5050981;28;20198;-65
2020/12/21 03:40:02;;;;;;;12.27;10.97;;;4.50;99.90;;;;;;5052500;28;20192;-65
2020/12/21 03:42:28;;;;;;;11.23;9.77;;;4.70;99.90;;;;;;5053309;28;20206;-65
2020/12/21 03:44:54;;;;;;;11.07;9.97;;;4.90;99.90;;;;;;5052915;28;20180;-65
2020/12/21 03:47:19;;;;;;;12.80;9.13;;;5.00;99.90;;;;;;5051945;28;20244;-65
2020/12/21 03:49:45;;;;;;;9.07;8.27;;;5.10;99.90;;;;;;5052869;28;20628;-65
2020/12/21 03:52:10;;;;;;;8.90;8.03;;;5.10;99.90;;;;;;5052466;28;20208;-64
2020/12/21 03:54:36;;;;;;;8.70;7.67;;;5.20;99.90;;;;;;5052242;28;20197;-64
2020/12/21 03:57:02;;;;;;;8.67;7.53;;;5.20;99.90;;;;;;5052071;28;20181;-65
2020/12/21 03:59:27;;;;;;;9.23;7.70;;;5.10;99.90;;;;;;5052443;28;20185;-65
2020/12/21 04:01:53;;;;;;;10.20;7.90;;;5.10;99.90;;;;;;5051369;28;20200;-65
2020/12/21 04:04:18;;;;;;;10.17;7.17;;;5.10;99.90;;;;;;5055418;28;20185;-65
2020/12/21 04:06:44;;;;;;;7.73;7.00;;;5.00;99.90;;;;;;5051389;28;20193;-66
2020/12/21 04:09:09;;;;;;;26.70;11.57;;;4.80;99.90;;;;;;5051786;28;20189;-65
2020/12/21 04:11:35;;;;;;;189.10;21.60;;;4.70;99.90;;;;;;5052178;28;20260;-65
2020/12/21 04:14:01;;;;;;;62.97;17.17;;;4.50;99.90;;;;;;5046340;28;20185;-65
2020/12/21 04:16:26;;;;;;;71.00;18.37;;;4.20;99.90;;;;;;5050735;28;20197;-65
2020/12/21 04:18:52;;;;;;;109.87;18.13;;;4.00;99.90;;;;;;5051587;28;20223;-64
2020/12/21 04:21:18;;;;;;;34.30;13.50;;;3.80;99.90;;;;;;5051951;28;20672;-66
2020/12/21 04:23:43;;;;;;;25.97;17.03;;;3.60;99.90;;;;;;5051679;28;20259;-65
2020/12/21 04:26:09;;;;;;;22.83;15.67;;;3.50;99.90;;;;;;5051798;28;20193;-65
2020/12/21 04:28:36;;;;;;;22.90;16.13;;;3.40;99.90;;;;;;5052281;28;20260;-65
2020/12/21 04:31:03;;;;;;;16.43;14.80;;;3.30;99.90;;;;;;5051532;28;20206;-65
2020/12/21 04:33:28;;;;;;;15.73;14.23;;;3.30;99.90;;;;;;5051097;28;20198;-65
2020/12/21 04:35:54;;;;;;;15.20;13.70;;;3.30;99.90;;;;;;5051651;28;20188;-65
2020/12/21 04:38:20;;;;;;;16.23;14.73;;;3.20;99.90;;;;;;5051273;28;20215;-65
2020/12/21 04:40:51;;;;;;;18.77;16.97;;;3.30;99.90;;;;;;5050660;28;20200;-65
2020/12/21 04:43:17;;;;;;;17.60;15.90;;;3.30;99.90;;;;;;5051077;28;20177;-65
2020/12/21 04:45:45;;;;;;;15.40;14.00;;;3.30;99.90;;;;;;5050686;28;20196;-66
2020/12/21 04:48:15;;;;;;;18.65;17.05;;;3.30;99.90;;;;;;5049684;28;20949;-64
2020/12/21 04:50:42;;;;;;;17.67;15.97;;;3.30;99.90;;;;;;5053105;28;20192;-66
2020/12/21 04:53:08;;;;;;;16.50;15.00;;;3.30;99.90;;;;;;5052011;28;20240;-66
2020/12/21 04:55:34;;;;;;;15.47;14.00;;;3.30;99.90;;;;;;5051141;28;20268;-66
2020/12/21 04:58:01;;;;;;;16.37;14.80;;;3.30;99.90;;;;;;5050754;28;20585;-66
2020/12/21 05:00:29;;;;;;;17.57;15.87;;;3.30;99.90;;;;;;5051100;28;20171;-66
2020/12/21 05:02:55;;;;;;;26.87;22.70;;;3.30;99.90;;;;;;5048700;28;20203;-66
2020/12/21 05:05:32;;;;;;;22.47;18.27;;;3.60;99.90;;;;;;5041981;28;20169;-66
2020/12/21 05:08:27;;;;;;;18.23;16.50;;;3.70;99.90;;;;;;5034141;28;20192;-65
2020/12/21 05:11:00;;;;;;;17.33;15.50;;;3.80;99.90;;;;;;5006423;28;20203;-66
2020/12/21 05:13:26;;;;;;;55.70;18.77;;;3.90;99.90;;;;;;5008034;28;20192;-65
2020/12/21 05:15:56;;;;;;;16.90;15.10;;;4.00;99.90;;;;;;5001965;28;20282;-66
2020/12/21 05:18:25;;;;;;;17.67;15.77;;;4.10;99.90;;;;;;5008178;28;20289;-65
2020/12/21 05:21:02;;;;;;;18.67;16.67;;;4.10;99.90;;;;;;5008210;28;20212;-65
2020/12/21 05:23:29;;;;;;;17.03;15.23;;;4.10;99.90;;;;;;5009133;28;20836;-65
2020/12/21 05:26:02;;;;;;;17.30;15.53;;;4.00;99.90;;;;;;5019006;28;20208;-66
2020/12/21 05:28:30;;;;;;;20.43;17.30;;;4.00;99.90;;;;;;5009514;28;20216;-65
2020/12/21 05:30:58;;;;;;;20.37;17.57;;;3.90;99.90;;;;;;5029162;28;20187;-66
2020/12/21 05:33:25;;;;;;;31.00;24.33;;;3.90;99.90;;;;;;5027903;28;20202;-64
2020/12/21 05:35:50;;;;;;;23.03;19.13;;;3.80;99.90;;;;;;5008957;28;20885;-65
2020/12/21 05:38:34;;;;;;;18.50;16.60;;;3.70;99.90;;;;;;5007487;28;20210;-66
2020/12/21 05:41:17;;;;;;;34.67;15.30;;;3.50;99.90;;;;;;5007736;28;20582;-64
2020/12/21 05:43:45;;;;;;;35.87;16.07;;;3.50;99.90;;;;;;5005670;28;20188;-67
2020/12/21 05:46:14;;;;;;;122.33;19.20;;;3.20;99.90;;;;;;5008072;28;20186;-66
2020/12/21 05:48:41;;;;;;;18.03;16.13;;;3.10;99.90;;;;;;5043009;28;20213;-66
2020/12/21 05:51:09;;;;;;;169.53;22.67;;;3.00;99.90;;;;;;5049915;28;20240;-67
2020/12/21 05:53:35;;;;;;;60.43;17.50;;;2.90;99.90;;;;;;5049892;28;20559;-66
2020/12/21 05:56:03;;;;;;;91.23;19.23;;;2.90;99.90;;;;;;5050549;28;20178;-66
2020/12/21 05:58:31;;;;;;;24.67;17.63;;;2.90;99.90;;;;;;5050089;28;20208;-65
2020/12/21 06:01:02;;;;;;;54.23;19.50;;;2.90;99.90;;;;;;5048600;28;20301;-67
2020/12/21 06:03:39;;;;;;;20.33;17.33;;;2.90;99.90;;;;;;5041993;28;20659;-65
2020/12/21 06:06:07;;;;;;;19.17;17.23;;;3.00;99.90;;;;;;5044396;28;20182;-65
2020/12/21 06:08:35;;;;;;;31.07;19.13;;;3.20;99.90;;;;;;5045897;28;20183;-65
2020/12/21 06:11:18;;;;;;;23.83;20.13;;;3.20;99.90;;;;;;5049182;28;20177;-68
2020/12/21 06:13:55;;;;;;;23.50;18.33;;;3.40;99.90;;;;;;5047733;28;20183;-66
2020/12/21 06:16:22;;;;;;;25.30;16.80;;;3.40;99.90;;;;;;5044130;28;20175;-67
2020/12/21 06:19:11;;;;;;;21.07;18.87;;;3.50;99.90;;;;;;5049391;28;20345;-66
2020/12/21 06:21:49;;;;;;;26.63;22.50;;;3.50;99.90;;;;;;5047987;28;20206;-68
2020/12/21 06:24:25;;;;;;;45.90;33.33;;;3.50;99.90;;;;;;5048056;28;20203;-65
2020/12/21 06:26:52;;;;;;;36.10;26.60;;;3.40;99.90;;;;;;5047306;28;20186;-65
2020/12/21 06:29:25;;;;;;;17.70;15.53;;;3.40;99.90;;;;;;5049298;28;20173;-67
2020/12/21 06:31:52;;;;;;;17.73;15.77;;;3.40;99.90;;;;;;5046862;28;20199;-65
2020/12/21 06:34:19;;;;;;;15.87;13.73;;;3.40;99.90;;;;;;5048079;28;20603;-71
2020/12/21 06:36:49;;;;;;;16.93;15.13;;;3.50;99.90;;;;;;5048693;28;20684;-68
2020/12/21 06:39:24;;;;;;;18.80;16.80;;;3.50;99.90;;;;;;5049441;28;20289;-69
2020/12/21 06:42:13;;;;;;;19.93;17.07;;;3.40;99.90;;;;;;5030031;28;20221;-70
2020/12/21 06:44:40;;;;;;;20.23;18.03;;;3.40;99.90;;;;;;5049210;28;20814;-71
2020/12/21 06:47:07;;;;;;;21.23;18.93;;;3.40;99.90;;;;;;5048373;28;20169;-69
2020/12/21 06:49:33;;;;;;;21.37;19.17;;;3.40;99.90;;;;;;5048650;28;20186;-69
2020/12/21 06:51:59;;;;;;;20.27;18.03;;;3.40;99.90;;;;;;5048345;28;20220;-69
2020/12/21 06:54:25;;;;;;;20.67;18.57;;;3.30;99.90;;;;;;5048798;28;20177;-67
2020/12/21 06:56:52;;;;;;;19.77;17.77;;;3.30;99.90;;;;;;5049076;28;20176;-68
2020/12/21 06:59:19;;;;;;;17.60;15.73;;;3.20;99.90;;;;;;5048723;28;20973;-67
2020/12/21 07:01:48;;;;;;;21.37;18.73;;;3.20;99.90;;;;;;5044297;28;20685;-67
2020/12/21 07:04:18;;;;;;;21.13;18.87;;;3.30;99.90;;;;;;5048728;28;20196;-68
2020/12/21 07:06:44;;;;;;;22.03;19.73;;;3.40;99.90;;;;;;5048976;28;20184;-68
2020/12/21 07:09:11;;;;;;;21.50;19.30;;;3.50;99.90;;;;;;5048839;28;20180;-67
2020/12/21 07:11:39;;;;;;;37.70;27.30;;;3.60;99.90;;;;;;5049038;28;20735;-67
2020/12/21 07:14:05;;;;;;;21.87;19.57;;;3.70;99.90;;;;;;5051859;28;20659;-67
2020/12/21 07:16:31;;;;;;;19.20;17.27;;;3.80;99.90;;;;;;5031352;28;20794;-69
2020/12/21 07:18:57;;;;;;;17.27;15.47;;;3.80;99.90;;;;;;5047624;28;20214;-68
2020/12/21 07:21:23;;;;;;;18.40;16.37;;;3.90;99.90;;;;;;5047503;28;20229;-68
2020/12/21 07:23:49;;;;;;;18.63;16.73;;;3.90;99.90;;;;;;5047683;28;20221;-68
2020/12/21 07:26:16;;;;;;;27.13;23.77;;;3.90;99.90;;;;;;5047194;28;20178;-68
2020/12/21 07:28:46;;;;;;;17.80;16.00;;;3.90;99.90;;;;;;5052318;28;20573;-68
2020/12/21 07:31:17;;;;;;;17.43;13.93;;;3.90;99.90;;;;;;5052887;28;20194;-69
2020/12/21 07:33:55;;;;;;;15.53;13.63;;;3.90;99.90;;;;;;5044227;28;20188;-68
2020/12/21 07:36:26;;;;;;;12.10;10.93;;;3.80;99.90;;;;;;5051103;28;20184;-67
2020/12/21 07:38:53;;;;;;;14.80;11.27;;;3.60;99.90;;;;;;5053802;28;20733;-69
2020/12/21 07:41:23;;;;;;;10.70;9.67;;;3.60;99.90;;;;;;5053036;28;20639;-68
2020/12/21 07:44:03;;;;;;;11.27;9.73;;;3.60;99.90;;;;;;5057105;28;20247;-68
2020/12/21 07:46:38;;;;;;;11.27;9.47;;;3.80;99.90;;;;;;5052805;28;20222;-70
2020/12/21 07:49:04;;;;;;;8.40;7.60;;;3.90;99.90;;;;;;5053049;28;20211;-69
2020/12/21 07:51:31;;;;;;;10.03;7.83;;;4.10;99.90;;;;;;5052574;28;20202;-69
2020/12/21 07:54:00;;;;;;;8.40;7.50;;;4.20;99.90;;;;;;5054072;28;20225;-68
2020/12/21 07:56:26;;;;;;;8.23;7.23;;;4.30;99.90;;;;;;5049693;28;20190;-69
2020/12/21 07:58:51;;;;;;;7.73;7.03;;;4.40;99.90;;;;;;5052930;28;20366;-69
2020/12/21 08:01:23;;;;;;;7.67;6.30;;;4.50;99.90;;;;;;5051643;28;20302;-68
2020/12/21 08:03:53;;;;;;;11.00;9.83;;;4.60;99.90;;;;;;5043414;28;20198;-68
2020/12/21 08:06:23;;;;;;;14.53;13.03;;;4.70;99.90;;;;;;5051419;28;20174;-69
2020/12/21 08:08:50;;;;;;;17.10;13.40;;;4.70;99.90;;;;;;5043310;28;20194;-71
2020/12/21 08:11:18;;;;;;;15.23;13.40;;;4.80;99.90;;;;;;5046116;28;20202;-69
2020/12/21 08:13:46;;;;;;;15.57;13.97;;;4.80;99.90;;;;;;5051512;28;20199;-70
2020/12/21 08:16:11;;;;;;;16.23;14.60;;;4.80;99.90;;;;;;5046512;28;20562;-70
2020/12/21 08:18:37;;;;;;;16.77;14.13;;;4.80;99.90;;;;;;5046533;28;20218;-72
2020/12/21 08:21:04;;;;;;;14.40;12.93;;;4.80;99.90;;;;;;5045169;28;20751;-69
2020/12/21 08:23:31;;;;;;;15.03;13.60;;;4.90;99.90;;;;;;5046330;28;20206;-71
2020/12/21 08:25:58;;;;;;;16.13;13.80;;;5.00;99.90;;;;;;5049770;28;20182;-69
2020/12/21 08:28:35;;;;;;;12.73;11.43;;;5.00;99.90;;;;;;5043303;28;20214;-69
2020/12/21 08:31:08;;;;;;;13.90;12.50;;;5.10;99.90;;;;;;5047445;28;20203;-69
2020/12/21 08:33:35;;;;;;;17.03;15.27;;;5.10;99.90;;;;;;5050370;28;20195;-68
2020/12/21 08:36:16;;;;;;;19.00;17.00;;;5.10;99.90;;;;;;5051044;28;20186;-69
2020/12/21 08:38:43;;;;;;;19.00;17.10;;;5.20;99.90;;;;;;5029717;28;20592;-69
2020/12/21 08:41:08;;;;;;;18.87;15.73;;;5.20;99.90;;;;;;5046576;28;20259;-70
2020/12/21 08:43:34;;;;;;;18.43;15.63;;;5.30;99.90;;;;;;5042382;28;20199;-68
2020/12/21 08:45:59;;;;;;;18.90;17.10;;;5.30;99.90;;;;;;5045586;28;20190;-69
2020/12/21 08:48:26;;;;;;;18.77;16.97;;;5.40;99.90;;;;;;5045019;28;20207;-69
2020/12/21 08:50:51;;;;;;;17.40;15.70;;;5.50;99.90;;;;;;5051018;28;20183;-69
2020/12/21 08:53:17;;;;;;;20.57;18.57;;;5.50;99.90;;;;;;5050684;28;20182;-68
2020/12/21 08:55:42;;;;;;;20.13;18.10;;;5.50;99.90;;;;;;5050972;28;20181;-68
2020/12/21 08:58:09;;;;;;;21.13;19.23;;;5.50;99.90;;;;;;5050431;28;20218;-69
2020/12/21 09:00:35;;;;;;;21.33;19.43;;;5.40;99.90;;;;;;5050504;28;20201;-69
2020/12/21 09:03:00;;;;;;;20.90;19.07;;;5.30;99.90;;;;;;5049829;28;20219;-69
2020/12/21 09:05:26;;;;;;;19.33;17.67;;;5.20;99.90;;;;;;5049158;28;20178;-71
2020/12/21 09:07:51;;;;;;;17.73;16.23;;;5.30;99.90;;;;;;5051277;28;20194;-69
2020/12/21 09:10:17;;;;;;;16.67;15.10;;;5.50;99.90;;;;;;5035056;28;20233;-74
2020/12/21 09:12:42;;;;;;;16.77;15.17;;;5.50;99.90;;;;;;5033454;28;20891;-69
2020/12/21 09:15:08;;;;;;;17.63;16.03;;;5.60;99.90;;;;;;5043801;28;20182;-68
2020/12/21 09:17:34;;;;;;;15.03;13.53;;;5.60;99.90;;;;;;5042921;28;20206;-68
2020/12/21 09:19:59;;;;;;;146.13;80.10;;;5.60;99.90;;;;;;5050686;28;20192;-68
2020/12/21 09:22:25;;;;;;;75.03;49.17;;;5.70;99.90;;;;;;5046626;28;20277;-68
2020/12/21 09:24:51;;;;;;;58.93;41.77;;;5.80;99.90;;;;;;5050113;28;20181;-68
2020/12/21 09:27:16;;;;;;;48.33;35.30;;;6.00;99.90;;;;;;5049713;28;20185;-68
2020/12/21 09:29:42;;;;;;;22.67;20.20;;;6.00;99.80;;;;;;5048590;28;20197;-70
2020/12/21 09:32:07;;;;;;;20.17;18.10;;;5.90;99.90;;;;;;5046368;28;20299;-70
2020/12/21 09:34:33;;;;;;;47.93;40.17;;;6.00;99.90;;;;;;5030483;28;20187;-69
2020/12/21 09:37:00;;;;;;;29.47;23.83;;;6.00;99.90;;;;;;5046940;28;20205;-69
2020/12/21 09:39:26;;;;;;;25.87;22.97;;;6.00;99.90;;;;;;5050530;28;20235;-69
2020/12/21 09:41:52;;;;;;;21.80;19.50;;;6.20;99.90;;;;;;5050386;28;20292;-69
2020/12/21 09:44:18;;;;;;;19.67;17.77;;;6.30;99.90;;;;;;5045128;28;20268;-70
2020/12/21 09:46:43;;;;;;;19.27;17.27;;;6.40;99.90;;;;;;5051292;28;20254;-71
2020/12/21 09:49:09;;;;;;;18.60;16.57;;;6.50;99.90;;;;;;5050466;28;20184;-69
2020/12/21 09:51:34;;;;;;;18.83;17.00;;;6.70;99.70;;;;;;5049010;28;20210;-69
2020/12/21 09:54:00;;;;;;;17.57;15.77;;;6.80;99.30;;;;;;5046438;28;20225;-68
2020/12/21 09:56:26;;;;;;;19.40;17.30;;;6.80;98.60;;;;;;5051643;28;20188;-69
2020/12/21 09:58:52;;;;;;;18.30;16.37;;;6.80;99.10;;;;;;5049443;28;20295;-70
2020/12/21 10:01:17;;;;;;;17.87;16.07;;;6.80;99.10;;;;;;5029316;28;20206;-70
2020/12/21 10:03:43;;;;;;;18.37;16.57;;;6.80;99.60;;;;;;5042789;28;20184;-69
2020/12/21 10:06:12;;;;;;;15.43;14.00;;;6.90;99.50;;;;;;5040092;28;20221;-70
2020/12/21 10:08:39;;;;;;;17.57;15.73;;;7.10;99.30;;;;;;5034226;28;20207;-69
2020/12/21 10:11:05;;;;;;;18.93;17.03;;;7.20;99.50;;;;;;5040092;28;20253;-70
2020/12/21 10:13:31;;;;;;;18.50;16.80;;;7.30;99.40;;;;;;5035836;28;20618;-71
2020/12/21 10:15:58;;;;;;;20.87;18.87;;;7.50;99.40;;;;;;5065459;28;20170;-70
2020/12/21 10:18:23;;;;;;;11.33;10.17;;;7.50;98.30;;;;;;5054535;28;20199;-69
2020/12/21 10:20:49;;;;;;;67.37;35.27;;;7.50;97.70;;;;;;5058133;28;20248;-69
2020/12/21 10:23:15;;;;;;;257.80;99.43;;;7.40;98.60;;;;;;5067259;28;20371;-68
2020/12/21 10:25:42;;;;;;;193.17;71.77;;;7.40;98.20;;;;;;5060144;28;20797;-71
2020/12/21 10:28:07;;;;;;;188.53;77.67;;;7.30;98.50;;;;;;5067277;28;20188;-69
2020/12/21 10:30:33;;;;;;;52.80;34.10;;;7.30;98.40;;;;;;5069032;28;20191;-72
2020/12/21 10:33:01;;;;;;;19.80;16.20;;;7.30;98.50;;;;;;5062935;28;20231;-69
2020/12/21 10:35:27;;;;;;;8.50;7.80;;;7.30;99.20;;;;;;5060401;28;20191;-68
2020/12/21 10:37:52;;;;;;;10.07;9.17;;;7.30;98.90;;;;;;5065438;28;20738;-68
2020/12/21 10:40:18;;;;;;;8.10;7.30;;;7.30;99.30;;;;;;5057597;28;20193;-69
2020/12/21 10:42:44;;;;;;;7.07;6.37;;;7.30;99.20;;;;;;5054121;28;20261;-68
2020/12/21 10:45:09;;;;;;;7.60;6.77;;;7.30;98.20;;;;;;5045608;28;20238;-68
2020/12/21 10:47:35;;;;;;;7.37;6.67;;;7.20;98.40;;;;;;5059570;28;20186;-70
2020/12/21 10:50:00;;;;;;;7.40;6.70;;;7.20;98.80;;;;;;5062414;28;20194;-70
2020/12/21 10:52:26;;;;;;;10.37;7.53;;;7.20;99.60;;;;;;5063984;28;20206;-70
2020/12/21 10:54:51;;;;;;;8.47;7.53;;;7.10;99.70;;;;;;5058327;28;20185;-70
2020/12/21 10:57:17;;;;;;;9.27;8.37;;;7.10;99.70;;;;;;5054346;28;20200;-71
2020/12/21 10:59:43;;;;;;;11.17;8.47;;;7.10;99.90;;;;;;5055086;28;20185;-69
2020/12/21 11:02:08;;;;;;;9.13;7.57;;;7.10;99.90;;;;;;5055904;28;20682;-70
2020/12/21 11:04:34;;;;;;;10.27;9.27;;;7.10;99.90;;;;;;5048391;28;20187;-69
2020/12/21 11:06:59;;;;;;;12.20;8.30;;;7.20;99.90;;;;;;5067672;28;20188;-69
2020/12/21 11:09:25;;;;;;;10.37;7.50;;;7.30;99.90;;;;;;5061089;28;20195;-68
2020/12/21 11:11:51;;;;;;;8.33;7.20;;;7.30;99.70;;;;;;5057636;28;20241;-69
2020/12/21 11:14:17;;;;;;;9.67;7.07;;;7.40;99.90;;;;;;5061563;28;20195;-69
2020/12/21 11:16:49;;;;;;;6.97;6.20;;;7.40;99.30;;;;;;5052997;28;20274;-68
2020/12/21 11:19:14;;;;;;;9.13;5.73;;;7.50;99.40;;;;;;5037407;28;20207;-68
2020/12/21 11:21:41;;;;;;;8.57;6.37;;;7.50;99.20;;;;;;5047905;28;20332;-69
2020/12/21 11:24:07;;;;;;;7.57;5.63;;;7.60;99.00;;;;;;5049672;28;20183;-68
2020/12/21 11:26:32;;;;;;;8.70;5.47;;;7.70;98.80;;;;;;5034607;28;20176;-68
2020/12/21 11:28:58;;;;;;;5.50;5.00;;;7.80;98.20;;;;;;5048538;28;20221;-69
2020/12/21 11:31:23;;;;;;;5.60;5.10;;;7.90;97.90;;;;;;5034994;28;20678;-69
2020/12/21 11:33:49;;;;;;;8.83;5.57;;;7.90;97.90;;;;;;5048608;28;20198;-70
2020/12/21 11:36:15;;;;;;;7.67;4.60;;;8.10;97.40;;;;;;5048719;28;20248;-69
2020/12/21 11:38:42;;;;;;;9.70;5.13;;;8.30;97.50;;;;;;5049131;28;20732;-70
2020/12/21 11:41:08;;;;;;;8.60;5.20;;;8.40;96.60;;;;;;5043394;28;20253;-70
2020/12/21 11:43:33;;;;;;;14.83;13.33;;;8.50;96.70;;;;;;5034836;28;20192;-69
2020/12/21 11:45:59;;;;;;;17.20;15.40;;;8.50;97.80;;;;;;5048182;28;20179;-68
2020/12/21 11:48:25;;;;;;;19.63;17.00;;;8.60;98.40;;;;;;5042955;28;20183;-69
2020/12/21 11:50:51;;;;;;;23.17;18.13;;;8.70;98.00;;;;;;5045285;28;20192;-70
2020/12/21 11:53:16;;;;;;;19.83;17.83;;;8.70;98.20;;;;;;5038361;28;20287;-70
2020/12/21 11:55:42;;;;;;;19.37;17.37;;;8.60;98.70;;;;;;5046671;28;20191;-72
2020/12/21 11:58:07;;;;;;;17.50;15.47;;;8.60;99.10;;;;;;5050043;28;20231;-70
2020/12/21 12:00:33;;;;;;;16.70;15.17;;;8.70;98.70;;;;;;5053009;28;20172;-69
2020/12/21 12:02:58;;;;;;;22.33;19.93;;;8.70;98.60;;;;;;5052648;28;20212;-71
2020/12/21 12:05:24;;;;;;;20.73;18.53;;;8.80;98.40;;;;;;5053026;28;20184;-71
2020/12/21 12:07:50;;;;;;;21.70;19.50;;;8.80;98.00;;;;;;5048016;28;20194;-71
2020/12/21 12:10:16;;;;;;;17.67;15.73;;;8.80;98.00;;;;;;5042555;28;20192;-70
2020/12/21 12:12:41;;;;;;;16.70;14.23;;;8.60;98.20;;;;;;5038084;28;20203;-70
2020/12/21 12:15:07;;;;;;;41.93;33.00;;;8.60;98.50;;;;;;5027665;28;20210;-69
2020/12/21 12:17:32;;;;;;;34.60;27.73;;;8.50;98.20;;;;;;5051793;28;20184;-71
2020/12/21 12:19:58;;;;;;;24.23;20.37;;;8.50;98.70;;;;;;5046703;28;20188;-68
2020/12/21 12:22:24;;;;;;;15.77;13.30;;;8.50;99.10;;;;;;5030104;28;20199;-70
2020/12/21 12:24:49;;;;;;;14.60;13.10;;;8.50;98.90;;;;;;5046799;28;20191;-69
2020/12/21 12:27:15;;;;;;;14.13;9.40;;;8.60;99.10;;;;;;5049034;28;20649;-69
2020/12/21 12:29:40;;;;;;;11.60;6.30;;;8.70;98.20;;;;;;5050616;28;20176;-70
2020/12/21 12:32:06;;;;;;;6.27;4.30;;;8.80;97.10;;;;;;5049299;28;20266;-69
2020/12/21 12:34:32;;;;;;;4.33;3.63;;;8.90;96.20;;;;;;5048709;28;20189;-69
2020/12/21 12:36:57;;;;;;;6.13;4.50;;;8.90;96.50;;;;;;5030739;28;20659;-69
2020/12/21 12:39:23;;;;;;;4.97;3.67;;;8.90;96.80;;;;;;5046380;28;20211;-68